Time;durP1;ratioP1;P1;durP2;ratioP2;P2;SDS_P1;SDS_P2;PMS_P1;PMS_P2;Temp;Humidity;BMP_temperature;BMP_pressure;BME280_temperature;BME280_humidity;BME280_pressure;Samples;Min_cycle;Max_cycle;Signal;HPM_P1;HPM_P2
2023/06/30 00:00:33;;;;;;;9.20;3.17;;;16.60;99.90;;;;;;5052879;28;20040;-84
2023/06/30 00:02:59;;;;;;;12.07;3.90;;;16.60;99.90;;;;;;5069702;28;20471;-84
2023/06/30 00:05:25;;;;;;;14.07;4.00;;;16.60;99.90;;;;;;5053003;28;20040;-84
2023/06/30 00:07:54;;;;;;;13.93;4.45;;;16.60;99.90;;;;;;5069740;28;20041;-84
2023/06/30 00:10:21;;;;;;;10.27;4.18;;;16.50;99.90;;;;;;5069859;28;20055;-84
2023/06/30 00:12:47;;;;;;;14.57;5.28;;;16.50;99.90;;;;;;5070175;28;20040;-84
2023/06/30 00:15:13;;;;;;;11.32;3.97;;;16.40;99.90;;;;;;5070070;28;20044;-84
2023/06/30 00:17:38;;;;;;;9.05;3.17;;;16.40;99.90;;;;;;5070133;28;20121;-84
2023/06/30 00:20:05;;;;;;;12.18;4.80;;;16.30;99.90;;;;;;5069269;28;20082;-84
2023/06/30 00:22:31;;;;;;;11.50;4.05;;;16.40;99.90;;;;;;5052633;28;20032;-84
2023/06/30 00:24:58;;;;;;;14.25;3.90;;;16.40;99.90;;;;;;5069866;28;20033;-84
2023/06/30 00:27:24;;;;;;;13.20;5.22;;;16.30;99.90;;;;;;5069088;28;20051;-84
2023/06/30 00:29:50;;;;;;;14.02;4.00;;;16.30;99.90;;;;;;5069988;28;20421;-84
2023/06/30 00:32:15;;;;;;;12.95;5.53;;;16.30;99.90;;;;;;5053031;28;20037;-84
2023/06/30 00:34:41;;;;;;;14.00;5.20;;;16.30;99.90;;;;;;5069784;28;20169;-84
2023/06/30 00:37:07;;;;;;;14.95;5.78;;;16.30;99.90;;;;;;5069690;28;20051;-84
2023/06/30 00:39:32;;;;;;;13.07;5.03;;;16.30;99.90;;;;;;5069191;28;20051;-84
2023/06/30 00:41:58;;;;;;;11.15;4.28;;;16.40;99.90;;;;;;5069231;28;20036;-84
2023/06/30 00:44:24;;;;;;;9.82;3.28;;;16.40;99.90;;;;;;5069396;28;20043;-84
2023/06/30 00:46:49;;;;;;;12.75;5.20;;;16.30;99.90;;;;;;5069605;28;20162;-83
2023/06/30 00:49:15;;;;;;;13.32;4.90;;;16.40;99.90;;;;;;5052527;28;20045;-83
2023/06/30 00:51:41;;;;;;;12.20;5.00;;;16.40;99.90;;;;;;5069427;28;20040;-84
2023/06/30 00:54:07;;;;;;;11.32;4.57;;;16.40;99.90;;;;;;5069535;28;20048;-84
2023/06/30 00:56:33;;;;;;;10.23;3.55;;;16.40;99.90;;;;;;5069212;28;20029;-84
2023/06/30 00:58:58;;;;;;;11.15;3.63;;;16.30;99.90;;;;;;5052938;28;20037;-84
2023/06/30 01:01:32;;;;;;;12.73;4.95;;;16.30;99.90;;;;;;5068798;28;20044;-84
2023/06/30 01:04:10;;;;;;;10.88;3.40;;;16.30;99.90;;;;;;5069100;28;20581;-84
2023/06/30 01:06:43;;;;;;;14.02;3.90;;;16.20;99.90;;;;;;5052667;28;20037;-84
2023/06/30 01:09:14;;;;;;;13.77;4.90;;;16.10;99.90;;;;;;5069254;28;20053;-84
2023/06/30 01:11:42;;;;;;;12.30;4.75;;;16.20;99.90;;;;;;5069096;28;20085;-84
2023/06/30 01:14:10;;;;;;;12.60;4.93;;;16.20;99.90;;;;;;5069189;28;20059;-84
2023/06/30 01:16:36;;;;;;;12.77;3.00;;;16.10;99.90;;;;;;5052509;28;20037;-84
2023/06/30 01:19:07;;;;;;;10.15;3.35;;;16.10;99.90;;;;;;5052646;28;20724;-84
2023/06/30 01:21:33;;;;;;;8.50;2.88;;;15.90;99.90;;;;;;5068634;28;20032;-85
2023/06/30 01:24:09;;;;;;;14.00;4.82;;;15.80;99.90;;;;;;5068769;28;20072;-84
2023/06/30 01:26:35;;;;;;;10.00;3.40;;;15.80;99.90;;;;;;5069379;28;20524;-84
2023/06/30 01:29:06;;;;;;;12.43;3.63;;;15.70;99.90;;;;;;5068879;28;20045;-83
2023/06/30 01:31:32;;;;;;;10.30;3.03;;;15.70;99.90;;;;;;5069027;28;20040;-84
2023/06/30 01:34:02;;;;;;;15.77;4.70;;;15.60;99.90;;;;;;5069112;28;20041;-83
2023/06/30 01:36:28;;;;;;;11.38;4.35;;;15.70;99.90;;;;;;5069030;28;20135;-84
2023/06/30 01:38:54;;;;;;;12.27;4.30;;;15.60;99.90;;;;;;5070370;28;20079;-83
2023/06/30 01:41:21;;;;;;;7.82;2.63;;;15.70;99.90;;;;;;5071664;28;20072;-83
2023/06/30 01:43:49;;;;;;;9.40;2.92;;;15.60;99.90;;;;;;5073700;28;20428;-84
2023/06/30 01:46:15;;;;;;;12.32;4.07;;;15.50;99.90;;;;;;5072524;28;20090;-83
2023/06/30 01:48:43;;;;;;;8.68;3.30;;;15.50;99.90;;;;;;5072500;28;20040;-84
2023/06/30 01:51:11;;;;;;;8.65;2.63;;;15.50;99.90;;;;;;5072527;28;20040;-83
2023/06/30 01:53:37;;;;;;;13.07;2.70;;;15.40;99.90;;;;;;5089416;28;20494;-83
2023/06/30 01:56:02;;;;;;;10.02;3.80;;;15.40;99.90;;;;;;5073397;28;20045;-83
2023/06/30 01:58:28;;;;;;;14.27;3.90;;;15.40;99.90;;;;;;5072678;28;20052;-83
2023/06/30 02:00:54;;;;;;;10.48;3.40;;;15.40;99.90;;;;;;5055050;28;20537;-83
2023/06/30 02:03:19;;;;;;;8.73;2.40;;;15.40;99.90;;;;;;5055270;28;20119;-83
2023/06/30 02:05:45;;;;;;;11.20;3.42;;;15.30;99.90;;;;;;5072303;28;20075;-82
2023/06/30 02:08:10;;;;;;;12.38;3.42;;;15.30;99.90;;;;;;5072202;28;20410;-83
2023/06/30 02:10:36;;;;;;;9.77;3.55;;;15.30;99.90;;;;;;5072043;28;20040;-83
2023/06/30 02:13:02;;;;;;;9.07;2.60;;;15.30;99.90;;;;;;5071669;28;20036;-83
2023/06/30 02:15:27;;;;;;;11.90;3.67;;;15.20;99.90;;;;;;5071416;28;20059;-83
2023/06/30 02:17:54;;;;;;;14.00;3.75;;;15.20;99.90;;;;;;5071519;28;20448;-83
2023/06/30 02:20:19;;;;;;;12.77;3.35;;;15.20;99.90;;;;;;5072379;28;20479;-84
2023/06/30 02:22:45;;;;;;;11.98;2.78;;;15.20;99.90;;;;;;5054789;28;20039;-83
2023/06/30 02:25:10;;;;;;;7.90;2.35;;;15.10;99.90;;;;;;5072847;28;20070;-83
2023/06/30 02:27:36;;;;;;;10.85;2.10;;;15.00;99.90;;;;;;5071495;28;20044;-83
2023/06/30 02:30:05;;;;;;;11.60;3.60;;;14.90;99.90;;;;;;5071556;28;20467;-83
2023/06/30 02:32:37;;;;;;;8.90;2.83;;;14.90;99.90;;;;;;5071378;28;20037;-83
2023/06/30 02:35:08;;;;;;;12.30;3.30;;;14.80;99.90;;;;;;5071699;28;20040;-83
2023/06/30 02:37:33;;;;;;;7.47;2.15;;;14.80;99.90;;;;;;5071666;28;20078;-83
2023/06/30 02:39:59;;;;;;;12.30;3.55;;;14.70;99.90;;;;;;5071383;28;20048;-83
2023/06/30 02:42:25;;;;;;;11.15;3.90;;;14.70;99.90;;;;;;5070760;28;20036;-83
2023/06/30 02:44:50;;;;;;;10.77;3.58;;;14.70;99.90;;;;;;5071033;28;20386;-82
2023/06/30 02:47:16;;;;;;;12.23;3.83;;;14.70;99.90;;;;;;5071477;28;20071;-83
2023/06/30 02:49:42;;;;;;;8.85;2.28;;;14.70;99.90;;;;;;5070849;28;20043;-83
2023/06/30 02:52:08;;;;;;;12.00;2.20;;;14.70;99.90;;;;;;5070926;28;20047;-83
2023/06/30 02:54:34;;;;;;;9.68;2.10;;;14.60;99.90;;;;;;5071525;28;20076;-83
2023/06/30 02:56:59;;;;;;;9.90;3.33;;;14.60;99.90;;;;;;5071137;28;20075;-83
2023/06/30 02:59:25;;;;;;;9.90;2.63;;;14.50;99.90;;;;;;5071143;28;20410;-83
2023/06/30 03:01:51;;;;;;;12.10;2.67;;;14.40;99.90;;;;;;5070773;28;20079;-83
2023/06/30 03:04:17;;;;;;;10.73;3.85;;;14.40;99.90;;;;;;5054207;28;20036;-82
2023/06/30 03:06:42;;;;;;;10.65;3.42;;;14.30;99.90;;;;;;5070620;28;20048;-82
2023/06/30 03:09:08;;;;;;;12.10;3.55;;;14.40;99.90;;;;;;5070877;28;20044;-83
2023/06/30 03:11:34;;;;;;;9.45;2.28;;;14.30;99.90;;;;;;5072167;28;20044;-83
2023/06/30 03:13:59;;;;;;;9.32;2.47;;;14.30;99.90;;;;;;5070999;28;20048;-82
2023/06/30 03:16:25;;;;;;;9.90;2.53;;;14.10;99.90;;;;;;5070973;28;20040;-82
2023/06/30 03:18:51;;;;;;;11.10;3.65;;;14.10;99.90;;;;;;5071121;28;20692;-82
2023/06/30 03:21:16;;;;;;;12.23;2.75;;;14.10;99.90;;;;;;5053395;28;20043;-82
2023/06/30 03:23:42;;;;;;;12.57;3.97;;;14.10;99.90;;;;;;5070234;28;20040;-83
2023/06/30 03:26:08;;;;;;;11.80;4.07;;;14.10;99.90;;;;;;5053706;28;20080;-82
2023/06/30 03:28:35;;;;;;;12.63;4.28;;;14.10;99.90;;;;;;5054013;28;20048;-82
2023/06/30 03:31:01;;;;;;;7.18;2.40;;;14.10;99.90;;;;;;5053687;28;20537;-82
2023/06/30 03:33:27;;;;;;;10.15;2.75;;;14.00;99.90;;;;;;5070643;28;20128;-83
2023/06/30 03:35:52;;;;;;;9.50;2.92;;;13.90;99.90;;;;;;5070241;28;20074;-83
2023/06/30 03:38:18;;;;;;;9.15;2.42;;;13.80;99.90;;;;;;5070472;28;20123;-83
2023/06/30 03:40:43;;;;;;;13.13;4.40;;;13.80;99.90;;;;;;5069598;28;20429;-83
2023/06/30 03:43:10;;;;;;;11.45;4.63;;;13.80;99.90;;;;;;5070168;28;20045;-83
2023/06/30 03:45:37;;;;;;;8.57;2.15;;;13.80;99.90;;;;;;5069099;28;20045;-83
2023/06/30 03:48:03;;;;;;;10.07;2.72;;;13.70;99.90;;;;;;5069316;28;20513;-83
2023/06/30 03:50:28;;;;;;;8.73;2.90;;;13.60;99.90;;;;;;5069635;28;20040;-83
2023/06/30 03:52:54;;;;;;;11.77;2.63;;;13.50;99.90;;;;;;5070575;28;20044;-82
2023/06/30 03:55:19;;;;;;;13.15;4.30;;;13.50;99.90;;;;;;5070524;28;20145;-83
2023/06/30 03:57:45;;;;;;;12.45;4.07;;;13.50;99.90;;;;;;5069794;28;20486;-83
2023/06/30 04:00:12;;;;;;;7.47;2.47;;;13.50;99.90;;;;;;5069737;28;20032;-83
2023/06/30 04:02:39;;;;;;;11.05;2.75;;;13.50;99.90;;;;;;5068702;28;20067;-83
2023/06/30 04:05:04;;;;;;;10.07;2.47;;;13.40;99.90;;;;;;5069659;28;20406;-83
2023/06/30 04:07:30;;;;;;;9.50;3.88;;;13.30;99.90;;;;;;5053154;28;20044;-83
2023/06/30 04:09:56;;;;;;;12.23;2.35;;;13.40;99.90;;;;;;5069568;28;20040;-82
2023/06/30 04:12:21;;;;;;;9.45;2.72;;;13.30;99.90;;;;;;5069858;28;20103;-83
2023/06/30 04:14:48;;;;;;;11.13;2.90;;;13.20;99.90;;;;;;5069909;28;20041;-83
2023/06/30 04:17:13;;;;;;;7.38;2.50;;;13.10;99.90;;;;;;5069369;28;20170;-82
2023/06/30 04:19:39;;;;;;;7.18;2.38;;;13.10;99.90;;;;;;5069239;28;20078;-82
2023/06/30 04:22:05;;;;;;;14.57;3.90;;;13.10;99.90;;;;;;5052724;28;20028;-82
2023/06/30 04:24:30;;;;;;;11.27;4.15;;;13.20;99.90;;;;;;5069300;28;20062;-82
2023/06/30 04:26:56;;;;;;;8.13;2.30;;;13.20;99.90;;;;;;5069576;28;20048;-82
2023/06/30 04:29:22;;;;;;;8.15;2.35;;;13.10;99.90;;;;;;5069245;28;20043;-82
2023/06/30 04:31:47;;;;;;;9.57;3.17;;;13.00;99.90;;;;;;5051819;28;20131;-82
2023/06/30 04:34:13;;;;;;;8.90;2.67;;;13.00;99.90;;;;;;5052453;28;20124;-83
2023/06/30 04:36:39;;;;;;;7.30;2.17;;;13.00;99.90;;;;;;5069002;28;20048;-82
2023/06/30 04:39:04;;;;;;;7.63;2.42;;;13.00;99.90;;;;;;5069545;28;20090;-82
2023/06/30 04:41:30;;;;;;;9.85;2.47;;;13.00;99.90;;;;;;5069157;28;20066;-82
2023/06/30 04:43:56;;;;;;;10.93;2.60;;;13.10;99.90;;;;;;5068873;28;20036;-82
2023/06/30 04:46:21;;;;;;;9.63;2.53;;;13.10;99.90;;;;;;5069286;28;20406;-82
2023/06/30 04:48:48;;;;;;;11.02;4.00;;;13.10;99.90;;;;;;5069748;28;20090;-82
2023/06/30 04:51:15;;;;;;;7.97;2.72;;;13.20;99.90;;;;;;5069144;28;20056;-83
2023/06/30 04:53:40;;;;;;;14.57;2.65;;;13.20;99.90;;;;;;5052101;28;20036;-82
2023/06/30 04:56:06;;;;;;;11.23;2.70;;;13.20;99.90;;;;;;5069474;28;20387;-83
2023/06/30 04:58:32;;;;;;;8.23;2.60;;;13.20;99.90;;;;;;5069280;28;20517;-82
2023/06/30 05:00:57;;;;;;;11.10;2.88;;;13.20;99.90;;;;;;5069106;28;20464;-83
2023/06/30 05:03:23;;;;;;;7.65;2.80;;;13.20;99.90;;;;;;5051768;28;20119;-83
2023/06/30 05:05:48;;;;;;;6.35;1.90;;;13.20;99.90;;;;;;5069448;28;20044;-83
2023/06/30 05:08:14;;;;;;;11.65;2.83;;;13.20;99.90;;;;;;5069170;28;20630;-83
2023/06/30 05:10:40;;;;;;;7.82;2.90;;;13.30;99.90;;;;;;5068803;28;20160;-82
2023/06/30 05:13:05;;;;;;;7.28;2.22;;;13.30;99.90;;;;;;5069398;28;20418;-83
2023/06/30 05:15:31;;;;;;;14.93;4.50;;;13.30;99.90;;;;;;5073273;28;20037;-83
2023/06/30 05:17:56;;;;;;;5.82;2.25;;;13.50;99.90;;;;;;5072374;28;20037;-83
2023/06/30 05:20:22;;;;;;;11.25;4.10;;;13.50;99.90;;;;;;5072420;28;20397;-83
2023/06/30 05:22:48;;;;;;;11.52;3.95;;;13.60;99.90;;;;;;5055755;28;20048;-82
2023/06/30 05:25:13;;;;;;;8.65;2.55;;;13.70;99.90;;;;;;5072952;28;20048;-82
2023/06/30 05:27:39;;;;;;;6.18;2.20;;;13.70;99.90;;;;;;5072817;28;20551;-82
2023/06/30 05:30:05;;;;;;;6.57;2.45;;;13.70;99.90;;;;;;5072499;28;20498;-83
2023/06/30 05:32:31;;;;;;;10.65;2.65;;;13.80;99.90;;;;;;5072697;28;20120;-83
2023/06/30 05:34:57;;;;;;;10.38;3.08;;;13.80;99.90;;;;;;5055261;28;20474;-83
2023/06/30 05:37:22;;;;;;;12.00;4.30;;;13.90;99.90;;;;;;5072190;28;20037;-83
2023/06/30 05:39:48;;;;;;;10.68;2.40;;;14.00;99.90;;;;;;5071221;28;20040;-83
2023/06/30 05:42:13;;;;;;;8.05;2.63;;;14.00;99.90;;;;;;5071795;28;20036;-83
2023/06/30 05:44:39;;;;;;;12.63;4.18;;;14.10;99.90;;;;;;5051301;28;20571;-83
2023/06/30 05:47:05;;;;;;;9.77;2.75;;;14.20;99.90;;;;;;5051804;28;20083;-84
2023/06/30 05:49:30;;;;;;;10.65;2.80;;;14.30;99.90;;;;;;5035199;28;20120;-83
2023/06/30 05:51:56;;;;;;;12.27;4.20;;;14.30;99.90;;;;;;5052321;28;20471;-83
2023/06/30 05:54:21;;;;;;;12.40;4.43;;;14.50;99.90;;;;;;5045938;28;20041;-83
2023/06/30 05:56:47;;;;;;;12.73;3.10;;;14.70;99.90;;;;;;5072239;28;20040;-83
2023/06/30 05:59:12;;;;;;;8.50;2.45;;;14.80;99.90;;;;;;5071758;28;20033;-84
2023/06/30 06:01:38;;;;;;;7.10;2.67;;;14.90;99.90;;;;;;5071402;28;20383;-84
2023/06/30 06:04:08;;;;;;;9.57;3.55;;;15.00;99.90;;;;;;5071215;28;20191;-84
2023/06/30 06:06:34;;;;;;;12.25;4.03;;;15.10;99.90;;;;;;5054537;28;20080;-83
2023/06/30 06:08:59;;;;;;;8.10;2.28;;;15.20;99.90;;;;;;5071437;28;20075;-84
2023/06/30 06:11:26;;;;;;;7.95;2.42;;;15.30;99.90;;;;;;5071681;28;20048;-83
2023/06/30 06:13:51;;;;;;;11.88;4.00;;;15.30;99.90;;;;;;5071729;28;20040;-84
2023/06/30 06:16:17;;;;;;;13.55;3.90;;;15.40;99.90;;;;;;5071100;28;20402;-83
2023/06/30 06:18:42;;;;;;;12.57;4.20;;;15.50;99.90;;;;;;5071625;28;20133;-84
2023/06/30 06:21:08;;;;;;;11.15;3.80;;;15.50;99.90;;;;;;5054319;28;20036;-84
2023/06/30 06:23:34;;;;;;;9.13;2.40;;;15.60;99.90;;;;;;5071004;28;20033;-84
2023/06/30 06:26:02;;;;;;;9.77;3.50;;;15.70;99.90;;;;;;5068578;28;20133;-84
2023/06/30 06:28:27;;;;;;;10.27;3.70;;;15.70;99.90;;;;;;5052424;28;20532;-83
2023/06/30 06:30:53;;;;;;;13.85;3.50;;;15.80;99.90;;;;;;5069130;28;20036;-84
2023/06/30 06:33:19;;;;;;;11.88;2.33;;;16.00;99.90;;;;;;5070941;28;20036;-83
2023/06/30 06:35:44;;;;;;;7.32;1.73;;;16.00;99.90;;;;;;5069032;28;20681;-84
2023/06/30 06:38:10;;;;;;;8.90;2.80;;;16.10;99.90;;;;;;5070979;28;20037;-84
2023/06/30 06:40:35;;;;;;;8.90;2.80;;;16.10;99.90;;;;;;5053685;28;20086;-84
2023/06/30 06:43:01;;;;;;;7.85;2.20;;;16.20;99.90;;;;;;5071106;28;20036;-84
2023/06/30 06:45:27;;;;;;;9.73;2.17;;;16.20;99.90;;;;;;5053758;28;20157;-84
2023/06/30 06:48:22;;;;;;;10.27;2.50;;;16.10;99.90;;;;;;5054371;28;20035;-84
2023/06/30 06:50:50;;;;;;;12.48;3.00;;;16.30;99.90;;;;;;5070961;28;20063;-84
2023/06/30 06:53:22;;;;;;;10.63;2.50;;;16.30;99.90;;;;;;5071246;28;20116;-84
2023/06/30 06:55:53;;;;;;;8.13;2.80;;;16.50;99.90;;;;;;5070840;28;20497;-84
2023/06/30 06:58:18;;;;;;;9.23;2.60;;;16.60;99.90;;;;;;5054202;28;20041;-84
2023/06/30 07:00:49;;;;;;;10.45;2.65;;;16.70;99.90;;;;;;5070639;28;20029;-84
2023/06/30 07:03:16;;;;;;;8.93;1.92;;;16.90;99.90;;;;;;5051967;28;20094;-84
2023/06/30 07:05:43;;;;;;;9.90;2.13;;;17.10;99.90;;;;;;5069606;28;20055;-84
2023/06/30 07:08:10;;;;;;;6.72;1.80;;;17.10;99.90;;;;;;5052193;28;20036;-84
2023/06/30 07:10:36;;;;;;;7.72;2.10;;;17.20;99.90;;;;;;5051335;28;20414;-84
2023/06/30 07:13:02;;;;;;;10.88;2.85;;;17.20;99.90;;;;;;5070215;28;20044;-84
2023/06/30 07:15:28;;;;;;;9.68;2.35;;;17.40;99.90;;;;;;5070241;28;20032;-84
2023/06/30 07:17:54;;;;;;;8.77;1.70;;;17.40;99.90;;;;;;5053596;28;20520;-84
2023/06/30 07:20:19;;;;;;;9.38;2.00;;;17.40;99.90;;;;;;5053763;28;20036;-84
2023/06/30 07:22:46;;;;;;;10.02;1.92;;;17.40;99.90;;;;;;5069298;28;20044;-84
2023/06/30 07:25:11;;;;;;;7.50;1.90;;;17.40;99.90;;;;;;5052148;28;20502;-84
2023/06/30 07:27:38;;;;;;;8.75;1.77;;;17.40;99.90;;;;;;5069180;28;20040;-84
2023/06/30 07:30:06;;;;;;;7.43;1.88;;;17.40;99.90;;;;;;5053730;28;20032;-84
2023/06/30 07:32:33;;;;;;;7.47;2.05;;;17.50;99.90;;;;;;5053293;28;20047;-84
2023/06/30 07:35:00;;;;;;;9.05;2.10;;;17.60;99.90;;;;;;5068716;28;20085;-84
2023/06/30 07:37:25;;;;;;;8.18;1.80;;;17.70;99.90;;;;;;5069202;28;20052;-85
2023/06/30 07:39:51;;;;;;;8.23;1.83;;;17.80;99.90;;;;;;5069291;28;20044;-84
2023/06/30 07:42:17;;;;;;;10.15;2.13;;;17.80;99.90;;;;;;5068951;28;20514;-84
2023/06/30 07:44:42;;;;;;;8.93;1.77;;;17.80;99.90;;;;;;5069838;28;20587;-84
2023/06/30 07:47:08;;;;;;;7.60;1.85;;;17.80;99.90;;;;;;5069437;28;20083;-84
2023/06/30 07:49:33;;;;;;;11.02;2.05;;;17.80;99.90;;;;;;5069124;28;20501;-84
2023/06/30 07:51:59;;;;;;;7.93;1.75;;;17.90;99.90;;;;;;5068473;28;20037;-84
2023/06/30 07:54:24;;;;;;;8.15;1.90;;;18.00;99.90;;;;;;5067954;28;20439;-84
2023/06/30 07:56:50;;;;;;;6.32;1.58;;;18.10;99.90;;;;;;5067991;28;20037;-84
2023/06/30 07:59:16;;;;;;;7.03;1.67;;;18.00;99.90;;;;;;5050464;28;20602;-84
2023/06/30 08:01:41;;;;;;;9.77;1.88;;;18.10;99.90;;;;;;5068244;28;20078;-85
2023/06/30 08:04:07;;;;;;;8.52;1.92;;;18.10;99.90;;;;;;5067824;28;20036;-85
2023/06/30 08:06:32;;;;;;;6.93;1.67;;;18.20;99.90;;;;;;5068991;28;20044;-84
2023/06/30 08:08:58;;;;;;;11.30;2.05;;;18.20;99.90;;;;;;5069535;28;20044;-84
2023/06/30 08:11:25;;;;;;;7.05;1.80;;;18.20;99.90;;;;;;5068273;28;20115;-84
2023/06/30 08:13:51;;;;;;;6.13;1.75;;;18.30;99.90;;;;;;5051899;28;20079;-84
2023/06/30 08:16:18;;;;;;;5.90;1.52;;;18.30;99.90;;;;;;5069327;28;20127;-84
2023/06/30 08:18:43;;;;;;;8.25;1.70;;;18.40;99.90;;;;;;5085253;28;20123;-84
2023/06/30 08:21:09;;;;;;;7.40;2.00;;;18.50;99.90;;;;;;5068188;28;20060;-84
2023/06/30 08:23:35;;;;;;;5.43;1.30;;;18.50;99.90;;;;;;5068309;28;20052;-84
2023/06/30 08:26:00;;;;;;;7.00;1.77;;;18.50;99.90;;;;;;5051793;28;20072;-84
2023/06/30 08:28:26;;;;;;;5.95;1.50;;;18.60;99.90;;;;;;5068863;28;20414;-84
2023/06/30 08:30:51;;;;;;;7.53;1.83;;;18.60;99.90;;;;;;5068952;28;20037;-84
2023/06/30 08:33:17;;;;;;;6.97;1.75;;;18.60;99.90;;;;;;5069675;28;20433;-84
2023/06/30 08:35:43;;;;;;;7.65;1.50;;;18.80;99.90;;;;;;5069490;28;20626;-84
2023/06/30 08:38:08;;;;;;;8.02;1.77;;;18.90;99.90;;;;;;5070157;28;20625;-84
2023/06/30 08:40:34;;;;;;;6.60;1.58;;;19.00;99.90;;;;;;5068874;28;20540;-84
2023/06/30 08:43:09;;;;;;;6.32;1.70;;;19.10;99.90;;;;;;5070420;28;20078;-84
2023/06/30 08:45:35;;;;;;;8.35;1.63;;;19.20;99.90;;;;;;5068909;28;20040;-84
2023/06/30 08:48:04;;;;;;;6.22;1.75;;;19.40;99.90;;;;;;5069163;28;20039;-84
2023/06/30 08:50:33;;;;;;;6.72;1.50;;;19.40;99.90;;;;;;5073233;28;20043;-84
2023/06/30 08:52:59;;;;;;;7.90;1.60;;;19.40;99.90;;;;;;5056574;28;20047;-84
2023/06/30 08:55:26;;;;;;;8.20;2.47;;;19.40;99.60;;;;;;5073845;28;20029;-84
2023/06/30 08:57:55;;;;;;;6.13;1.77;;;19.50;99.00;;;;;;5055968;28;20075;-85
2023/06/30 09:00:22;;;;;;;6.47;1.80;;;19.60;99.00;;;;;;5056420;28;20147;-84
2023/06/30 09:02:48;;;;;;;4.82;1.38;;;19.70;98.10;;;;;;5072970;28;20037;-84
2023/06/30 09:05:14;;;;;;;6.35;2.10;;;19.80;97.20;;;;;;5072639;28;20093;-85
2023/06/30 09:07:53;;;;;;;5.88;1.30;;;19.90;97.00;;;;;;5073118;28;20055;-85
2023/06/30 09:10:19;;;;;;;6.85;1.60;;;20.00;95.20;;;;;;5073131;28;20040;-85
2023/06/30 09:12:47;;;;;;;7.53;1.80;;;20.10;95.70;;;;;;5074574;28;20032;-84
2023/06/30 09:15:17;;;;;;;6.82;1.50;;;20.10;95.20;;;;;;5072903;28;20090;-84
2023/06/30 09:17:43;;;;;;;6.68;1.40;;;20.10;94.30;;;;;;5073230;28;20072;-85
2023/06/30 09:20:11;;;;;;;7.53;1.60;;;20.10;93.00;;;;;;5072569;28;20044;-84
2023/06/30 09:22:42;;;;;;;6.05;1.40;;;20.20;92.20;;;;;;5071443;28;20028;-84
2023/06/30 09:25:35;;;;;;;6.85;1.73;;;20.30;92.20;;;;;;5071730;28;20035;-84
2023/06/30 09:28:09;;;;;;;6.30;1.58;;;20.40;92.40;;;;;;5063755;28;20052;-84
2023/06/30 09:30:37;;;;;;;7.45;1.60;;;20.50;93.00;;;;;;5056069;28;20052;-84
2023/06/30 09:33:03;;;;;;;21.52;2.75;;;20.60;92.00;;;;;;5072270;28;20174;-84
2023/06/30 09:35:39;;;;;;;6.47;1.30;;;20.60;91.50;;;;;;5072345;28;20686;-84
2023/06/30 09:38:12;;;;;;;5.55;1.40;;;20.50;90.80;;;;;;5070538;28;20115;-84
2023/06/30 09:40:41;;;;;;;6.50;1.30;;;20.40;90.90;;;;;;5069615;28;20036;-84
2023/06/30 09:43:07;;;;;;;5.60;1.30;;;20.50;90.00;;;;;;5071444;28;20528;-84
2023/06/30 09:45:33;;;;;;;6.03;1.30;;;20.60;90.30;;;;;;5071802;28;20148;-84
2023/06/30 09:47:59;;;;;;;7.15;2.08;;;20.70;90.30;;;;;;5053086;28;20040;-84
2023/06/30 09:50:30;;;;;;;5.13;1.40;;;20.90;89.20;;;;;;5072073;28;20170;-84
2023/06/30 09:52:56;;;;;;;6.95;1.67;;;21.00;88.90;;;;;;5055538;28;20040;-84
2023/06/30 09:55:22;;;;;;;9.32;1.95;;;21.10;87.80;;;;;;5072582;28;20386;-84
2023/06/30 09:57:47;;;;;;;7.82;1.77;;;21.10;87.20;;;;;;5072868;28;20371;-84
2023/06/30 10:00:14;;;;;;;6.82;1.70;;;20.90;85.80;;;;;;5070747;28;20499;-85
2023/06/30 10:02:40;;;;;;;6.00;1.40;;;20.90;86.30;;;;;;5071057;28;20060;-85
2023/06/30 10:05:07;;;;;;;7.10;1.48;;;21.00;86.40;;;;;;5070603;28;20084;-85
2023/06/30 10:07:33;;;;;;;5.55;1.30;;;21.10;85.70;;;;;;5071567;28;20071;-85
2023/06/30 10:10:00;;;;;;;5.82;1.50;;;21.20;83.20;;;;;;5071264;28;20525;-84
2023/06/30 10:12:27;;;;;;;4.45;1.23;;;21.10;83.40;;;;;;5071520;28;20058;-85
2023/06/30 10:14:54;;;;;;;9.27;1.60;;;21.10;82.60;;;;;;5071053;28;20048;-85
2023/06/30 10:17:20;;;;;;;5.15;1.40;;;21.00;81.00;;;;;;5071449;28;20494;-84
2023/06/30 10:19:46;;;;;;;6.60;1.52;;;21.00;82.00;;;;;;5070921;28;20094;-85
2023/06/30 10:22:12;;;;;;;6.40;1.48;;;21.20;83.10;;;;;;5054412;28;20035;-85
2023/06/30 10:24:43;;;;;;;6.35;1.27;;;21.30;81.00;;;;;;5070883;28;20044;-84
2023/06/30 10:27:12;;;;;;;6.25;1.58;;;21.40;81.50;;;;;;5071165;28;20456;-84
2023/06/30 10:29:37;;;;;;;5.95;1.35;;;21.40;79.70;;;;;;5071839;28;20048;-85
2023/06/30 10:32:03;;;;;;;4.53;1.30;;;21.40;79.90;;;;;;5071138;28;20563;-85
2023/06/30 10:34:30;;;;;;;8.07;1.40;;;21.40;78.00;;;;;;5051000;28;20088;-85
2023/06/30 10:36:57;;;;;;;5.10;1.27;;;21.20;78.20;;;;;;5065418;28;20040;-84
2023/06/30 10:39:24;;;;;;;6.68;1.45;;;21.20;77.90;;;;;;5070860;28;20379;-85
2023/06/30 10:41:49;;;;;;;5.72;1.40;;;21.10;77.50;;;;;;5054112;28;20051;-85
2023/06/30 10:44:19;;;;;;;5.05;1.33;;;21.10;77.90;;;;;;5070612;28;20398;-85
2023/06/30 10:46:48;;;;;;;4.55;1.20;;;20.90;75.10;;;;;;5071264;28;20094;-85
2023/06/30 10:49:32;;;;;;;6.68;1.60;;;20.80;75.00;;;;;;5054383;28;20041;-85
2023/06/30 10:52:02;;;;;;;6.90;1.77;;;20.70;75.80;;;;;;5071231;28;20123;-85
2023/06/30 10:54:29;;;;;;;8.85;1.52;;;20.80;79.00;;;;;;5071557;28;20048;-85
2023/06/30 10:57:05;;;;;;;7.07;1.70;;;21.00;79.20;;;;;;5071161;28;20089;-85
2023/06/30 10:59:42;;;;;;;9.13;1.92;;;21.10;80.80;;;;;;5070846;28;20045;-85
2023/06/30 11:02:17;;;;;;;7.53;1.83;;;21.20;78.60;;;;;;5054462;28;20048;-85
2023/06/30 11:04:44;;;;;;;8.43;2.10;;;21.30;76.60;;;;;;5054215;28;20040;-85
2023/06/30 11:07:11;;;;;;;7.13;1.52;;;21.30;79.00;;;;;;5069837;28;20040;-85
2023/06/30 11:09:48;;;;;;;6.30;1.67;;;21.40;76.90;;;;;;5054304;28;20207;-85
2023/06/30 11:12:15;;;;;;;6.18;1.40;;;21.20;74.80;;;;;;5069471;28;20046;-85
2023/06/30 11:14:58;;;;;;;6.50;1.40;;;21.00;75.90;;;;;;5070399;28;20036;-85
2023/06/30 11:17:47;;;;;;;7.20;1.63;;;20.90;76.80;;;;;;5052275;28;20044;-85
2023/06/30 11:20:13;;;;;;;7.80;1.80;;;20.70;77.60;;;;;;5069927;28;20348;-85
2023/06/30 11:22:40;;;;;;;7.70;1.48;;;20.70;76.20;;;;;;5070461;28;20238;-85
2023/06/30 11:25:10;;;;;;;7.28;1.60;;;20.90;75.80;;;;;;5069874;28;20040;-85
2023/06/30 11:27:38;;;;;;;6.90;1.85;;;21.00;75.70;;;;;;5069772;28;20093;-85
2023/06/30 11:30:04;;;;;;;6.97;1.40;;;21.20;73.50;;;;;;5071113;28;20040;-85
2023/06/30 11:32:32;;;;;;;5.72;1.45;;;21.40;74.40;;;;;;5071107;28;20044;-85
2023/06/30 11:34:59;;;;;;;7.53;1.70;;;21.60;75.30;;;;;;5070208;28;20068;-85
2023/06/30 11:37:26;;;;;;;6.38;1.60;;;21.70;73.40;;;;;;5070075;28;20046;-85
2023/06/30 11:39:57;;;;;;;6.38;1.60;;;21.80;72.80;;;;;;5067242;28;20028;-85
2023/06/30 11:42:24;;;;;;;7.03;1.60;;;22.00;72.90;;;;;;5053409;28;20390;-85
2023/06/30 11:44:49;;;;;;;8.25;1.90;;;22.10;73.30;;;;;;5069719;28;20044;-86
2023/06/30 11:47:16;;;;;;;6.15;1.35;;;22.20;73.90;;;;;;5069719;28;20558;-85
2023/06/30 11:49:42;;;;;;;6.65;1.52;;;22.20;71.10;;;;;;5069290;28;20155;-85
2023/06/30 11:52:07;;;;;;;9.25;2.05;;;22.00;70.90;;;;;;5052483;28;20119;-85
2023/06/30 11:54:35;;;;;;;10.32;3.13;;;22.10;70.60;;;;;;5069960;28;20434;-85
2023/06/30 11:57:01;;;;;;;19.98;5.50;;;22.20;69.10;;;;;;5051640;28;20037;-85
2023/06/30 11:59:27;;;;;;;13.18;4.70;;;22.30;69.60;;;;;;5068275;28;20047;-85
2023/06/30 12:01:56;;;;;;;10.55;2.70;;;22.40;70.50;;;;;;5069772;28;20402;-85
2023/06/30 12:04:21;;;;;;;7.22;1.90;;;22.50;69.30;;;;;;5069327;28;20124;-86
2023/06/30 12:06:50;;;;;;;10.80;1.90;;;22.60;67.40;;;;;;5069251;28;20067;-86
2023/06/30 12:09:15;;;;;;;12.85;3.25;;;22.50;66.90;;;;;;5069569;28;20516;-86
2023/06/30 12:11:45;;;;;;;6.80;1.65;;;22.60;67.70;;;;;;5069263;28;20044;-86
2023/06/30 12:14:14;;;;;;;7.80;2.00;;;22.70;66.60;;;;;;5066236;28;20040;-86
2023/06/30 12:16:48;;;;;;;5.20;1.40;;;22.70;67.10;;;;;;5049945;28;20410;-86
2023/06/30 12:19:15;;;;;;;7.32;1.85;;;22.90;68.60;;;;;;5049986;28;20037;-86
2023/06/30 12:21:59;;;;;;;6.18;1.45;;;23.00;64.30;;;;;;5049623;28;20079;-86
2023/06/30 12:24:30;;;;;;;5.15;1.38;;;23.10;65.30;;;;;;5048881;28;20052;-86
2023/06/30 12:26:56;;;;;;;7.78;1.60;;;23.10;63.50;;;;;;5049988;28;20063;-86
2023/06/30 12:29:22;;;;;;;6.72;1.60;;;23.10;62.40;;;;;;5049788;28;20406;-86
2023/06/30 12:31:48;;;;;;;5.40;1.55;;;23.20;64.70;;;;;;5049818;28;20041;-86
2023/06/30 12:34:30;;;;;;;8.20;1.48;;;23.30;64.50;;;;;;5049848;28;20048;-86
2023/06/30 12:36:56;;;;;;;7.22;1.88;;;23.40;67.20;;;;;;5033330;28;20049;-86
2023/06/30 12:39:21;;;;;;;7.07;1.70;;;23.60;66.60;;;;;;5049984;28;20039;-86
2023/06/30 12:41:47;;;;;;;7.40;1.80;;;23.70;65.60;;;;;;5049409;28;20076;-86